sensor_id;sensor_type;location;lat;lon;timestamp;P1;durP1;ratioP1;P2;durP2;ratioP2
26435;SDS011;15351;52.408;16.826;2024-02-04T00:01:00;9.10;;;2.80;;
26435;SDS011;15351;52.408;16.826;2024-02-04T00:03:48;9.80;;;2.80;;
26435;SDS011;15351;52.408;16.826;2024-02-04T00:06:22;7.90;;;2.60;;
26435;SDS011;15351;52.408;16.826;2024-02-04T00:08:59;8.70;;;2.70;;
26435;SDS011;15351;52.408;16.826;2024-02-04T00:11:45;8.80;;;2.60;;
26435;SDS011;15351;52.408;16.826;2024-02-04T00:14:36;9.60;;;2.50;;
26435;SDS011;15351;52.408;16.826;2024-02-04T00:20:24;7.60;;;2.50;;
26435;SDS011;15351;52.408;16.826;2024-02-04T00:22:54;9.60;;;2.60;;
26435;SDS011;15351;52.408;16.826;2024-02-04T00:25:26;9.00;;;2.80;;
26435;SDS011;15351;52.408;16.826;2024-02-04T00:28:32;9.40;;;2.20;;
26435;SDS011;15351;52.408;16.826;2024-02-04T00:31:09;9.30;;;2.80;;
26435;SDS011;15351;52.408;16.826;2024-02-04T00:33:52;10.10;;;2.30;;
26435;SDS011;15351;52.408;16.826;2024-02-04T00:36:37;6.90;;;2.40;;
26435;SDS011;15351;52.408;16.826;2024-02-04T00:39:04;7.60;;;2.20;;
26435;SDS011;15351;52.408;16.826;2024-02-04T00:41:34;8.70;;;2.70;;
26435;SDS011;15351;52.408;16.826;2024-02-04T00:44:09;6.90;;;2.30;;
26435;SDS011;15351;52.408;16.826;2024-02-04T00:47:00;9.30;;;2.30;;
26435;SDS011;15351;52.408;16.826;2024-02-04T00:52:18;7.60;;;2.20;;
26435;SDS011;15351;52.408;16.826;2024-02-04T01:00:42;10.40;;;2.40;;
26435;SDS011;15351;52.408;16.826;2024-02-04T01:03:45;9.20;;;1.90;;
26435;SDS011;15351;52.408;16.826;2024-02-04T01:06:15;8.10;;;2.30;;
26435;SDS011;15351;52.408;16.826;2024-02-04T01:08:43;8.50;;;2.30;;
26435;SDS011;15351;52.408;16.826;2024-02-04T01:11:12;9.00;;;2.20;;
26435;SDS011;15351;52.408;16.826;2024-02-04T01:13:42;7.40;;;2.30;;
26435;SDS011;15351;52.408;16.826;2024-02-04T01:16:14;8.90;;;2.70;;
26435;SDS011;15351;52.408;16.826;2024-02-04T01:18:41;8.80;;;2.60;;
26435;SDS011;15351;52.408;16.826;2024-02-04T01:21:10;8.60;;;2.40;;
26435;SDS011;15351;52.408;16.826;2024-02-04T01:23:46;10.30;;;2.70;;
26435;SDS011;15351;52.408;16.826;2024-02-04T01:26:24;9.60;;;2.50;;
26435;SDS011;15351;52.408;16.826;2024-02-04T01:28:53;10.70;;;2.70;;
26435;SDS011;15351;52.408;16.826;2024-02-04T01:31:29;8.40;;;2.30;;
26435;SDS011;15351;52.408;16.826;2024-02-04T01:33:58;8.60;;;2.70;;
26435;SDS011;15351;52.408;16.826;2024-02-04T01:36:30;12.10;;;2.80;;
26435;SDS011;15351;52.408;16.826;2024-02-04T01:39:00;9.20;;;2.50;;
26435;SDS011;15351;52.408;16.826;2024-02-04T01:41:29;10.10;;;2.60;;
26435;SDS011;15351;52.408;16.826;2024-02-04T01:43:56;10.80;;;2.70;;
26435;SDS011;15351;52.408;16.826;2024-02-04T01:46:48;12.30;;;2.70;;
26435;SDS011;15351;52.408;16.826;2024-02-04T01:49:22;8.20;;;2.60;;
26435;SDS011;15351;52.408;16.826;2024-02-04T01:51:53;10.40;;;2.40;;
26435;SDS011;15351;52.408;16.826;2024-02-04T01:54:28;11.70;;;2.80;;
26435;SDS011;15351;52.408;16.826;2024-02-04T01:56:59;10.40;;;2.90;;
26435;SDS011;15351;52.408;16.826;2024-02-04T01:59:46;9.30;;;2.40;;
26435;SDS011;15351;52.408;16.826;2024-02-04T02:02:27;10.10;;;2.70;;
26435;SDS011;15351;52.408;16.826;2024-02-04T02:05:00;9.90;;;2.60;;
26435;SDS011;15351;52.408;16.826;2024-02-04T02:10:31;10.00;;;2.50;;
26435;SDS011;15351;52.408;16.826;2024-02-04T02:13:07;10.50;;;2.70;;
26435;SDS011;15351;52.408;16.826;2024-02-04T02:16:15;11.50;;;2.80;;
26435;SDS011;15351;52.408;16.826;2024-02-04T02:18:57;11.10;;;3.00;;
26435;SDS011;15351;52.408;16.826;2024-02-04T02:21:56;10.20;;;2.90;;
26435;SDS011;15351;52.408;16.826;2024-02-04T02:24:33;10.90;;;3.10;;
26435;SDS011;15351;52.408;16.826;2024-02-04T02:27:21;10.90;;;3.40;;
26435;SDS011;15351;52.408;16.826;2024-02-04T02:29:59;10.40;;;2.80;;
26435;SDS011;15351;52.408;16.826;2024-02-04T02:32:29;11.00;;;3.00;;
26435;SDS011;15351;52.408;16.826;2024-02-04T02:34:56;9.60;;;2.90;;
26435;SDS011;15351;52.408;16.826;2024-02-04T02:37:32;11.20;;;3.00;;
26435;SDS011;15351;52.408;16.826;2024-02-04T02:43:11;10.50;;;2.80;;
26435;SDS011;15351;52.408;16.826;2024-02-04T02:45:49;10.90;;;3.10;;
26435;SDS011;15351;52.408;16.826;2024-02-04T02:48:16;11.00;;;3.00;;
26435;SDS011;15351;52.408;16.826;2024-02-04T02:50:57;8.30;;;2.60;;
26435;SDS011;15351;52.408;16.826;2024-02-04T02:53:33;10.40;;;2.60;;
26435;SDS011;15351;52.408;16.826;2024-02-04T02:56:05;12.10;;;3.10;;
26435;SDS011;15351;52.408;16.826;2024-02-04T02:58:33;8.50;;;2.80;;
26435;SDS011;15351;52.408;16.826;2024-02-04T03:01:01;9.80;;;2.70;;
26435;SDS011;15351;52.408;16.826;2024-02-04T03:03:28;13.00;;;3.00;;
26435;SDS011;15351;52.408;16.826;2024-02-04T03:06:03;10.70;;;3.00;;
26435;SDS011;15351;52.408;16.826;2024-02-04T03:08:39;11.60;;;2.70;;
26435;SDS011;15351;52.408;16.826;2024-02-04T03:11:08;10.00;;;2.80;;
26435;SDS011;15351;52.408;16.826;2024-02-04T03:13:44;8.80;;;2.40;;
26435;SDS011;15351;52.408;16.826;2024-02-04T03:16:35;10.70;;;3.00;;
26435;SDS011;15351;52.408;16.826;2024-02-04T03:19:09;9.50;;;2.70;;
26435;SDS011;15351;52.408;16.826;2024-02-04T03:21:40;9.70;;;2.50;;
26435;SDS011;15351;52.408;16.826;2024-02-04T03:24:08;10.30;;;3.10;;
26435;SDS011;15351;52.408;16.826;2024-02-04T03:26:42;12.40;;;2.80;;
26435;SDS011;15351;52.408;16.826;2024-02-04T03:29:17;12.00;;;3.10;;
26435;SDS011;15351;52.408;16.826;2024-02-04T03:31:53;10.20;;;2.90;;
26435;SDS011;15351;52.408;16.826;2024-02-04T03:34:23;8.60;;;2.70;;
26435;SDS011;15351;52.408;16.826;2024-02-04T03:36:50;9.80;;;2.60;;
26435;SDS011;15351;52.408;16.826;2024-02-04T03:39:25;9.30;;;2.40;;
26435;SDS011;15351;52.408;16.826;2024-02-04T03:41:52;9.20;;;2.70;;
26435;SDS011;15351;52.408;16.826;2024-02-04T03:44:20;9.60;;;2.70;;
26435;SDS011;15351;52.408;16.826;2024-02-04T03:46:49;10.50;;;2.70;;
26435;SDS011;15351;52.408;16.826;2024-02-04T03:49:19;12.80;;;3.40;;
26435;SDS011;15351;52.408;16.826;2024-02-04T03:51:48;9.90;;;2.70;;
26435;SDS011;15351;52.408;16.826;2024-02-04T03:54:15;12.30;;;2.90;;
26435;SDS011;15351;52.408;16.826;2024-02-04T03:56:45;11.50;;;2.60;;
26435;SDS011;15351;52.408;16.826;2024-02-04T03:59:16;10.50;;;2.60;;
26435;SDS011;15351;52.408;16.826;2024-02-04T04:02:00;12.40;;;3.10;;
26435;SDS011;15351;52.408;16.826;2024-02-04T04:04:31;13.60;;;2.80;;
26435;SDS011;15351;52.408;16.826;2024-02-04T04:07:15;9.80;;;2.90;;
26435;SDS011;15351;52.408;16.826;2024-02-04T04:09:51;12.70;;;2.60;;
26435;SDS011;15351;52.408;16.826;2024-02-04T04:12:23;9.10;;;2.70;;
26435;SDS011;15351;52.408;16.826;2024-02-04T04:14:51;11.40;;;2.90;;
26435;SDS011;15351;52.408;16.826;2024-02-04T04:17:19;11.30;;;2.90;;
26435;SDS011;15351;52.408;16.826;2024-02-04T04:19:46;11.50;;;3.20;;
26435;SDS011;15351;52.408;16.826;2024-02-04T04:22:34;10.30;;;3.00;;
26435;SDS011;15351;52.408;16.826;2024-02-04T04:25:04;10.20;;;2.90;;
26435;SDS011;15351;52.408;16.826;2024-02-04T04:27:40;11.90;;;2.90;;
26435;SDS011;15351;52.408;16.826;2024-02-04T04:30:07;11.40;;;2.80;;
26435;SDS011;15351;52.408;16.826;2024-02-04T04:32:36;10.00;;;2.90;;
26435;SDS011;15351;52.408;16.826;2024-02-04T04:35:04;11.80;;;3.20;;
26435;SDS011;15351;52.408;16.826;2024-02-04T04:37:34;11.10;;;2.60;;
26435;SDS011;15351;52.408;16.826;2024-02-04T04:40:08;11.10;;;2.90;;
26435;SDS011;15351;52.408;16.826;2024-02-04T04:42:44;9.90;;;2.60;;
26435;SDS011;15351;52.408;16.826;2024-02-04T04:45:13;11.30;;;3.10;;
26435;SDS011;15351;52.408;16.826;2024-02-04T04:47:41;11.50;;;3.00;;
26435;SDS011;15351;52.408;16.826;2024-02-04T04:50:18;11.50;;;2.80;;
26435;SDS011;15351;52.408;16.826;2024-02-04T04:52:50;12.20;;;2.90;;
26435;SDS011;15351;52.408;16.826;2024-02-04T04:55:18;12.10;;;3.10;;
26435;SDS011;15351;52.408;16.826;2024-02-04T05:01:10;11.60;;;2.70;;
26435;SDS011;15351;52.408;16.826;2024-02-04T05:03:46;10.30;;;2.80;;
26435;SDS011;15351;52.408;16.826;2024-02-04T05:09:38;10.60;;;3.20;;
26435;SDS011;15351;52.408;16.826;2024-02-04T05:12:30;11.20;;;2.90;;
26435;SDS011;15351;52.408;16.826;2024-02-04T05:15:20;13.10;;;3.00;;
26435;SDS011;15351;52.408;16.826;2024-02-04T05:18:00;10.50;;;2.90;;
26435;SDS011;15351;52.408;16.826;2024-02-04T05:20:38;10.60;;;2.50;;
26435;SDS011;15351;52.408;16.826;2024-02-04T05:23:19;9.70;;;2.60;;
26435;SDS011;15351;52.408;16.826;2024-02-04T05:25:49;13.40;;;2.80;;
26435;SDS011;15351;52.408;16.826;2024-02-04T05:28:26;10.10;;;2.70;;
26435;SDS011;15351;52.408;16.826;2024-02-04T05:31:11;11.50;;;3.00;;
26435;SDS011;15351;52.408;16.826;2024-02-04T05:33:38;10.70;;;2.70;;
26435;SDS011;15351;52.408;16.826;2024-02-04T05:36:14;12.10;;;2.90;;
26435;SDS011;15351;52.408;16.826;2024-02-04T05:38:43;11.20;;;2.90;;
26435;SDS011;15351;52.408;16.826;2024-02-04T05:41:12;11.80;;;2.80;;
26435;SDS011;15351;52.408;16.826;2024-02-04T05:43:40;11.30;;;2.60;;
26435;SDS011;15351;52.408;16.826;2024-02-04T05:46:24;11.80;;;2.90;;
26435;SDS011;15351;52.408;16.826;2024-02-04T05:48:53;10.10;;;2.70;;
26435;SDS011;15351;52.408;16.826;2024-02-04T05:51:32;12.30;;;3.00;;
26435;SDS011;15351;52.408;16.826;2024-02-04T05:54:02;12.10;;;3.10;;
26435;SDS011;15351;52.408;16.826;2024-02-04T05:56:35;11.20;;;3.00;;
26435;SDS011;15351;52.408;16.826;2024-02-04T05:59:27;11.50;;;3.10;;
26435;SDS011;15351;52.408;16.826;2024-02-04T06:01:57;11.70;;;2.90;;
26435;SDS011;15351;52.408;16.826;2024-02-04T06:04:26;11.60;;;3.00;;
26435;SDS011;15351;52.408;16.826;2024-02-04T06:06:55;10.80;;;2.80;;
26435;SDS011;15351;52.408;16.826;2024-02-04T06:09:24;11.90;;;2.70;;
26435;SDS011;15351;52.408;16.826;2024-02-04T06:11:54;13.10;;;2.90;;
26435;SDS011;15351;52.408;16.826;2024-02-04T06:14:31;12.60;;;2.70;;
26435;SDS011;15351;52.408;16.826;2024-02-04T06:17:00;12.00;;;2.90;;
26435;SDS011;15351;52.408;16.826;2024-02-04T06:19:29;10.20;;;3.00;;
26435;SDS011;15351;52.408;16.826;2024-02-04T06:21:57;8.70;;;2.70;;
26435;SDS011;15351;52.408;16.826;2024-02-04T06:24:27;10.70;;;2.60;;
26435;SDS011;15351;52.408;16.826;2024-02-04T06:26:55;9.30;;;2.70;;
26435;SDS011;15351;52.408;16.826;2024-02-04T06:29:26;12.00;;;3.00;;
26435;SDS011;15351;52.408;16.826;2024-02-04T06:31:57;11.50;;;2.80;;
26435;SDS011;15351;52.408;16.826;2024-02-04T06:34:26;11.50;;;3.40;;
26435;SDS011;15351;52.408;16.826;2024-02-04T06:36:58;12.50;;;4.00;;
26435;SDS011;15351;52.408;16.826;2024-02-04T06:39:27;13.00;;;3.40;;
26435;SDS011;15351;52.408;16.826;2024-02-04T06:41:54;9.60;;;3.00;;
26435;SDS011;15351;52.408;16.826;2024-02-04T06:44:23;12.50;;;3.10;;
26435;SDS011;15351;52.408;16.826;2024-02-04T06:46:53;13.10;;;3.20;;
26435;SDS011;15351;52.408;16.826;2024-02-04T06:52:23;12.20;;;3.10;;
26435;SDS011;15351;52.408;16.826;2024-02-04T06:54:54;14.50;;;3.40;;
26435;SDS011;15351;52.408;16.826;2024-02-04T06:57:21;11.80;;;3.50;;
26435;SDS011;15351;52.408;16.826;2024-02-04T07:00:15;10.30;;;3.20;;
26435;SDS011;15351;52.408;16.826;2024-02-04T07:02:44;9.90;;;3.00;;
26435;SDS011;15351;52.408;16.826;2024-02-04T07:05:11;11.60;;;2.90;;
26435;SDS011;15351;52.408;16.826;2024-02-04T07:07:40;9.60;;;3.00;;
26435;SDS011;15351;52.408;16.826;2024-02-04T07:10:18;11.00;;;3.10;;
26435;SDS011;15351;52.408;16.826;2024-02-04T07:13:03;9.20;;;3.00;;
26435;SDS011;15351;52.408;16.826;2024-02-04T07:15:32;14.80;;;3.70;;
26435;SDS011;15351;52.408;16.826;2024-02-04T07:18:01;11.50;;;3.90;;
26435;SDS011;15351;52.408;16.826;2024-02-04T07:20:30;11.60;;;3.80;;
26435;SDS011;15351;52.408;16.826;2024-02-04T07:22:57;12.70;;;3.70;;
26435;SDS011;15351;52.408;16.826;2024-02-04T07:25:31;10.10;;;3.30;;
26435;SDS011;15351;52.408;16.826;2024-02-04T07:28:04;11.20;;;3.40;;
26435;SDS011;15351;52.408;16.826;2024-02-04T07:30:40;10.90;;;3.10;;
26435;SDS011;15351;52.408;16.826;2024-02-04T07:33:09;9.50;;;3.10;;
26435;SDS011;15351;52.408;16.826;2024-02-04T07:35:38;9.40;;;3.00;;
26435;SDS011;15351;52.408;16.826;2024-02-04T07:38:04;11.30;;;3.00;;
26435;SDS011;15351;52.408;16.826;2024-02-04T07:40:31;9.00;;;2.90;;
26435;SDS011;15351;52.408;16.826;2024-02-04T07:43:00;10.00;;;3.00;;
26435;SDS011;15351;52.408;16.826;2024-02-04T07:45:30;10.80;;;3.10;;
26435;SDS011;15351;52.408;16.826;2024-02-04T07:47:58;10.90;;;3.00;;
26435;SDS011;15351;52.408;16.826;2024-02-04T07:50:28;10.90;;;3.00;;
26435;SDS011;15351;52.408;16.826;2024-02-04T07:53:04;13.70;;;3.30;;
26435;SDS011;15351;52.408;16.826;2024-02-04T07:55:31;10.90;;;3.10;;
26435;SDS011;15351;52.408;16.826;2024-02-04T07:57:59;12.40;;;3.40;;
26435;SDS011;15351;52.408;16.826;2024-02-04T08:00:28;12.30;;;3.20;;
26435;SDS011;15351;52.408;16.826;2024-02-04T08:03:14;11.20;;;3.30;;
26435;SDS011;15351;52.408;16.826;2024-02-04T08:05:43;9.40;;;3.20;;
26435;SDS011;15351;52.408;16.826;2024-02-04T08:08:15;11.00;;;3.70;;
26435;SDS011;15351;52.408;16.826;2024-02-04T08:10:43;10.60;;;3.70;;
26435;SDS011;15351;52.408;16.826;2024-02-04T08:13:11;11.20;;;3.50;;
26435;SDS011;15351;52.408;16.826;2024-02-04T08:15:39;11.20;;;3.70;;
26435;SDS011;15351;52.408;16.826;2024-02-04T08:18:12;10.90;;;4.00;;
26435;SDS011;15351;52.408;16.826;2024-02-04T08:20:52;12.60;;;4.10;;
26435;SDS011;15351;52.408;16.826;2024-02-04T08:23:22;13.20;;;3.80;;
26435;SDS011;15351;52.408;16.826;2024-02-04T08:25:50;9.30;;;3.10;;
26435;SDS011;15351;52.408;16.826;2024-02-04T08:28:18;11.40;;;3.50;;
26435;SDS011;15351;52.408;16.826;2024-02-04T08:30:55;9.20;;;3.10;;
26435;SDS011;15351;52.408;16.826;2024-02-04T08:33:26;9.10;;;3.30;;
26435;SDS011;15351;52.408;16.826;2024-02-04T08:35:56;10.40;;;3.30;;
26435;SDS011;15351;52.408;16.826;2024-02-04T08:38:26;8.60;;;2.90;;
26435;SDS011;15351;52.408;16.826;2024-02-04T08:40:57;10.30;;;3.00;;
26435;SDS011;15351;52.408;16.826;2024-02-04T08:43:26;10.20;;;3.00;;
26435;SDS011;15351;52.408;16.826;2024-02-04T08:45:53;9.60;;;3.10;;
26435;SDS011;15351;52.408;16.826;2024-02-04T08:51:10;8.90;;;2.90;;
26435;SDS011;15351;52.408;16.826;2024-02-04T08:53:39;8.00;;;3.00;;
26435;SDS011;15351;52.408;16.826;2024-02-04T08:58:45;9.20;;;3.30;;
26435;SDS011;15351;52.408;16.826;2024-02-04T09:01:21;9.10;;;3.50;;
26435;SDS011;15351;52.408;16.826;2024-02-04T09:03:51;8.50;;;3.60;;
26435;SDS011;15351;52.408;16.826;2024-02-04T09:06:19;9.10;;;3.70;;
26435;SDS011;15351;52.408;16.826;2024-02-04T09:08:47;10.60;;;3.90;;
26435;SDS011;15351;52.408;16.826;2024-02-04T09:11:14;11.30;;;4.20;;
26435;SDS011;15351;52.408;16.826;2024-02-04T09:13:45;8.00;;;3.30;;
26435;SDS011;15351;52.408;16.826;2024-02-04T09:16:12;7.10;;;2.90;;
26435;SDS011;15351;52.408;16.826;2024-02-04T09:18:43;9.20;;;3.50;;
26435;SDS011;15351;52.408;16.826;2024-02-04T09:21:15;9.20;;;3.30;;
26435;SDS011;15351;52.408;16.826;2024-02-04T09:23:42;9.50;;;3.20;;
26435;SDS011;15351;52.408;16.826;2024-02-04T09:26:21;7.50;;;3.10;;
26435;SDS011;15351;52.408;16.826;2024-02-04T09:29:14;9.20;;;2.90;;
26435;SDS011;15351;52.408;16.826;2024-02-04T09:31:46;8.60;;;2.90;;
26435;SDS011;15351;52.408;16.826;2024-02-04T09:34:33;8.50;;;3.10;;
26435;SDS011;15351;52.408;16.826;2024-02-04T09:37:02;8.10;;;2.90;;
26435;SDS011;15351;52.408;16.826;2024-02-04T09:39:30;9.20;;;3.90;;
26435;SDS011;15351;52.408;16.826;2024-02-04T09:41:57;10.30;;;3.80;;
26435;SDS011;15351;52.408;16.826;2024-02-04T09:44:26;7.90;;;3.00;;
26435;SDS011;15351;52.408;16.826;2024-02-04T09:46:53;9.10;;;3.50;;
26435;SDS011;15351;52.408;16.826;2024-02-04T09:49:20;7.30;;;2.90;;
26435;SDS011;15351;52.408;16.826;2024-02-04T09:51:51;7.90;;;2.60;;
26435;SDS011;15351;52.408;16.826;2024-02-04T09:54:17;8.20;;;2.90;;
26435;SDS011;15351;52.408;16.826;2024-02-04T09:56:47;6.10;;;2.50;;
26435;SDS011;15351;52.408;16.826;2024-02-04T09:59:17;8.10;;;2.90;;
26435;SDS011;15351;52.408;16.826;2024-02-04T10:01:44;7.80;;;3.00;;
26435;SDS011;15351;52.408;16.826;2024-02-04T10:04:14;9.10;;;3.40;;
26435;SDS011;15351;52.408;16.826;2024-02-04T10:06:41;8.60;;;2.60;;
26435;SDS011;15351;52.408;16.826;2024-02-04T10:09:08;7.00;;;2.50;;
26435;SDS011;15351;52.408;16.826;2024-02-04T10:11:36;8.30;;;3.00;;
26435;SDS011;15351;52.408;16.826;2024-02-04T10:14:02;8.80;;;3.10;;
26435;SDS011;15351;52.408;16.826;2024-02-04T10:16:35;7.40;;;2.70;;
26435;SDS011;15351;52.408;16.826;2024-02-04T10:19:01;7.80;;;2.60;;
26435;SDS011;15351;52.408;16.826;2024-02-04T10:21:29;7.50;;;2.90;;
26435;SDS011;15351;52.408;16.826;2024-02-04T10:23:58;7.30;;;2.30;;
26435;SDS011;15351;52.408;16.826;2024-02-04T10:26:28;7.70;;;2.10;;
26435;SDS011;15351;52.408;16.826;2024-02-04T10:29:03;7.50;;;2.40;;
26435;SDS011;15351;52.408;16.826;2024-02-04T10:31:33;6.30;;;2.10;;
26435;SDS011;15351;52.408;16.826;2024-02-04T10:34:01;8.10;;;2.50;;
26435;SDS011;15351;52.408;16.826;2024-02-04T10:36:29;7.10;;;2.30;;
26435;SDS011;15351;52.408;16.826;2024-02-04T10:38:57;7.20;;;2.90;;
26435;SDS011;15351;52.408;16.826;2024-02-04T10:41:28;9.10;;;2.60;;
26435;SDS011;15351;52.408;16.826;2024-02-04T10:44:01;7.50;;;2.80;;
26435;SDS011;15351;52.408;16.826;2024-02-04T10:46:39;7.20;;;2.50;;
26435;SDS011;15351;52.408;16.826;2024-02-04T10:49:31;7.00;;;2.60;;
26435;SDS011;15351;52.408;16.826;2024-02-04T10:52:14;6.90;;;2.50;;
26435;SDS011;15351;52.408;16.826;2024-02-04T10:54:46;7.30;;;2.70;;
26435;SDS011;15351;52.408;16.826;2024-02-04T10:57:19;8.80;;;2.70;;
26435;SDS011;15351;52.408;16.826;2024-02-04T11:00:03;7.50;;;2.90;;
26435;SDS011;15351;52.408;16.826;2024-02-04T11:02:34;6.20;;;2.90;;
26435;SDS011;15351;52.408;16.826;2024-02-04T11:05:21;9.00;;;2.60;;
26435;SDS011;15351;52.408;16.826;2024-02-04T11:07:51;9.70;;;3.50;;
26435;SDS011;15351;52.408;16.826;2024-02-04T11:10:24;9.70;;;3.50;;
26435;SDS011;15351;52.408;16.826;2024-02-04T11:13:02;8.70;;;3.80;;
26435;SDS011;15351;52.408;16.826;2024-02-04T11:15:55;9.20;;;4.10;;
26435;SDS011;15351;52.408;16.826;2024-02-04T11:25:10;9.90;;;4.00;;
26435;SDS011;15351;52.408;16.826;2024-02-04T11:28:20;8.40;;;4.00;;
26435;SDS011;15351;52.408;16.826;2024-02-04T11:30:54;12.30;;;4.30;;
26435;SDS011;15351;52.408;16.826;2024-02-04T11:33:33;8.00;;;3.20;;
26435;SDS011;15351;52.408;16.826;2024-02-04T11:36:03;7.50;;;3.10;;
26435;SDS011;15351;52.408;16.826;2024-02-04T11:38:48;9.90;;;3.80;;
26435;SDS011;15351;52.408;16.826;2024-02-04T11:41:33;6.90;;;2.90;;
26435;SDS011;15351;52.408;16.826;2024-02-04T11:44:23;6.70;;;2.90;;
26435;SDS011;15351;52.408;16.826;2024-02-04T11:47:10;6.10;;;2.50;;
26435;SDS011;15351;52.408;16.826;2024-02-04T11:49:40;9.70;;;3.20;;
26435;SDS011;15351;52.408;16.826;2024-02-04T11:52:18;7.60;;;2.90;;
26435;SDS011;15351;52.408;16.826;2024-02-04T11:57:25;8.00;;;3.00;;
26435;SDS011;15351;52.408;16.826;2024-02-04T12:00:23;8.40;;;3.30;;
26435;SDS011;15351;52.408;16.826;2024-02-04T12:03:01;6.80;;;2.90;;
26435;SDS011;15351;52.408;16.826;2024-02-04T12:05:46;6.20;;;2.50;;
26435;SDS011;15351;52.408;16.826;2024-02-04T12:08:20;8.20;;;2.80;;
26435;SDS011;15351;52.408;16.826;2024-02-04T12:14:20;7.30;;;2.70;;
26435;SDS011;15351;52.408;16.826;2024-02-04T12:17:21;6.40;;;2.70;;
26435;SDS011;15351;52.408;16.826;2024-02-04T12:19:52;6.10;;;2.30;;
26435;SDS011;15351;52.408;16.826;2024-02-04T12:22:54;6.50;;;2.40;;
26435;SDS011;15351;52.408;16.826;2024-02-04T12:25:41;8.10;;;3.00;;
26435;SDS011;15351;52.408;16.826;2024-02-04T12:28:33;8.60;;;3.10;;
26435;SDS011;15351;52.408;16.826;2024-02-04T12:31:57;7.50;;;3.00;;
26435;SDS011;15351;52.408;16.826;2024-02-04T12:35:22;7.20;;;3.10;;
26435;SDS011;15351;52.408;16.826;2024-02-04T12:40:50;7.60;;;2.60;;
26435;SDS011;15351;52.408;16.826;2024-02-04T12:43:54;7.20;;;2.60;;
26435;SDS011;15351;52.408;16.826;2024-02-04T12:46:37;5.50;;;2.70;;
26435;SDS011;15351;52.408;16.826;2024-02-04T12:49:33;7.50;;;2.80;;
26435;SDS011;15351;52.408;16.826;2024-02-04T12:52:04;9.20;;;3.10;;
26435;SDS011;15351;52.408;16.826;2024-02-04T12:54:41;7.60;;;2.80;;
26435;SDS011;15351;52.408;16.826;2024-02-04T12:57:22;8.90;;;2.60;;
26435;SDS011;15351;52.408;16.826;2024-02-04T13:00:17;5.40;;;2.10;;
26435;SDS011;15351;52.408;16.826;2024-02-04T13:02:48;6.70;;;2.60;;
26435;SDS011;15351;52.408;16.826;2024-02-04T13:05:35;7.80;;;2.50;;
26435;SDS011;15351;52.408;16.826;2024-02-04T13:08:03;8.30;;;2.30;;
26435;SDS011;15351;52.408;16.826;2024-02-04T13:10:35;7.60;;;2.90;;
26435;SDS011;15351;52.408;16.826;2024-02-04T13:13:09;7.60;;;2.60;;
26435;SDS011;15351;52.408;16.826;2024-02-04T13:15:42;7.40;;;2.70;;
26435;SDS011;15351;52.408;16.826;2024-02-04T13:18:10;8.40;;;2.80;;
26435;SDS011;15351;52.408;16.826;2024-02-04T13:20:38;7.20;;;2.70;;
26435;SDS011;15351;52.408;16.826;2024-02-04T13:23:05;7.40;;;3.10;;
26435;SDS011;15351;52.408;16.826;2024-02-04T13:25:32;8.20;;;2.80;;
26435;SDS011;15351;52.408;16.826;2024-02-04T13:28:13;6.60;;;2.50;;
26435;SDS011;15351;52.408;16.826;2024-02-04T13:30:50;8.50;;;2.50;;
26435;SDS011;15351;52.408;16.826;2024-02-04T13:33:18;8.10;;;2.60;;
26435;SDS011;15351;52.408;16.826;2024-02-04T13:35:57;6.10;;;2.20;;
26435;SDS011;15351;52.408;16.826;2024-02-04T13:38:36;7.70;;;2.30;;
26435;SDS011;15351;52.408;16.826;2024-02-04T13:41:02;6.60;;;2.10;;
26435;SDS011;15351;52.408;16.826;2024-02-04T13:43:35;7.20;;;2.20;;
26435;SDS011;15351;52.408;16.826;2024-02-04T13:46:08;5.90;;;2.30;;
26435;SDS011;15351;52.408;16.826;2024-02-04T13:48:40;5.80;;;2.30;;
26435;SDS011;15351;52.408;16.826;2024-02-04T13:51:17;4.70;;;2.00;;
26435;SDS011;15351;52.408;16.826;2024-02-04T13:53:44;6.30;;;2.40;;
26435;SDS011;15351;52.408;16.826;2024-02-04T13:56:14;6.30;;;2.30;;
26435;SDS011;15351;52.408;16.826;2024-02-04T13:59:07;5.60;;;2.20;;
26435;SDS011;15351;52.408;16.826;2024-02-04T14:04:33;5.90;;;2.20;;
26435;SDS011;15351;52.408;16.826;2024-02-04T14:07:00;6.50;;;2.10;;
26435;SDS011;15351;52.408;16.826;2024-02-04T14:09:30;6.40;;;2.60;;
26435;SDS011;15351;52.408;16.826;2024-02-04T14:11:56;7.60;;;2.30;;
26435;SDS011;15351;52.408;16.826;2024-02-04T14:14:23;5.80;;;2.30;;
26435;SDS011;15351;52.408;16.826;2024-02-04T14:16:54;7.20;;;2.80;;
26435;SDS011;15351;52.408;16.826;2024-02-04T14:19:21;7.70;;;3.10;;
26435;SDS011;15351;52.408;16.826;2024-02-04T14:21:47;7.10;;;2.60;;
26435;SDS011;15351;52.408;16.826;2024-02-04T14:24:15;6.80;;;2.60;;
26435;SDS011;15351;52.408;16.826;2024-02-04T14:26:47;7.80;;;2.70;;
26435;SDS011;15351;52.408;16.826;2024-02-04T14:29:33;6.40;;;2.30;;
26435;SDS011;15351;52.408;16.826;2024-02-04T14:32:37;6.00;;;2.80;;
26435;SDS011;15351;52.408;16.826;2024-02-04T14:35:24;7.20;;;2.30;;
26435;SDS011;15351;52.408;16.826;2024-02-04T14:38:07;6.50;;;2.40;;
26435;SDS011;15351;52.408;16.826;2024-02-04T14:40:34;8.00;;;2.50;;
26435;SDS011;15351;52.408;16.826;2024-02-04T14:43:17;6.50;;;2.00;;
26435;SDS011;15351;52.408;16.826;2024-02-04T14:45:44;6.60;;;2.60;;
26435;SDS011;15351;52.408;16.826;2024-02-04T14:48:20;6.70;;;2.50;;
26435;SDS011;15351;52.408;16.826;2024-02-04T14:50:56;6.00;;;2.40;;
26435;SDS011;15351;52.408;16.826;2024-02-04T14:53:25;7.10;;;2.80;;
26435;SDS011;15351;52.408;16.826;2024-02-04T14:55:54;8.00;;;2.70;;
26435;SDS011;15351;52.408;16.826;2024-02-04T14:59:04;6.60;;;2.70;;
26435;SDS011;15351;52.408;16.826;2024-02-04T15:01:33;7.40;;;2.40;;
26435;SDS011;15351;52.408;16.826;2024-02-04T15:04:10;6.50;;;2.50;;
26435;SDS011;15351;52.408;16.826;2024-02-04T15:06:39;6.10;;;2.70;;
26435;SDS011;15351;52.408;16.826;2024-02-04T15:09:15;7.60;;;3.40;;
26435;SDS011;15351;52.408;16.826;2024-02-04T15:11:49;8.30;;;3.30;;
26435;SDS011;15351;52.408;16.826;2024-02-04T15:14:27;6.80;;;2.80;;
26435;SDS011;15351;52.408;16.826;2024-02-04T15:16:54;6.10;;;2.50;;
26435;SDS011;15351;52.408;16.826;2024-02-04T15:22:21;5.90;;;2.30;;
26435;SDS011;15351;52.408;16.826;2024-02-04T15:25:27;4.80;;;2.20;;
26435;SDS011;15351;52.408;16.826;2024-02-04T15:28:09;6.30;;;2.30;;
26435;SDS011;15351;52.408;16.826;2024-02-04T15:31:16;6.10;;;2.50;;
26435;SDS011;15351;52.408;16.826;2024-02-04T15:39:41;7.20;;;2.50;;
26435;SDS011;15351;52.408;16.826;2024-02-04T15:42:09;8.50;;;3.00;;
26435;SDS011;15351;52.408;16.826;2024-02-04T15:44:55;7.60;;;2.60;;
26435;SDS011;15351;52.408;16.826;2024-02-04T15:47:24;8.20;;;2.80;;
26435;SDS011;15351;52.408;16.826;2024-02-04T15:50:28;7.50;;;2.90;;
26435;SDS011;15351;52.408;16.826;2024-02-04T15:52:55;9.80;;;3.50;;
26435;SDS011;15351;52.408;16.826;2024-02-04T15:55:33;10.40;;;3.20;;
26435;SDS011;15351;52.408;16.826;2024-02-04T16:01:27;6.80;;;2.80;;
26435;SDS011;15351;52.408;16.826;2024-02-04T16:04:49;10.20;;;3.90;;
26435;SDS011;15351;52.408;16.826;2024-02-04T16:13:27;7.70;;;3.40;;
26435;SDS011;15351;52.408;16.826;2024-02-04T16:16:26;8.40;;;3.30;;
26435;SDS011;15351;52.408;16.826;2024-02-04T16:19:03;6.40;;;3.20;;
26435;SDS011;15351;52.408;16.826;2024-02-04T16:21:54;8.00;;;3.10;;
26435;SDS011;15351;52.408;16.826;2024-02-04T16:24:49;8.00;;;3.10;;